UAE2P OMDB-LIPE
Flight info
| Callsign | UAE2P |
|---|---|
| Flight time | N/A |
| Altitude | 38000 |
| Route | ANVIX R401 GIDIS G783 RIGIL M628 PEKEM DCT MEDPO DCT ITRUX Y511 PMA Z712 SIGRO/N0493F400 Z712 WEJ L677 CVO L617 TANSA UL613 XANIS DCT DIMIS DCT KOFER DCT ORAKA DCT XAMIT DCT ERITU DCT SORUG DCT ASDOR DCT LIKNO DCT PIDEP DCT BAGNO M726 PELEG |
| Aircraft | A359/H-SDE2E3GHIJ3J4J5LM1ORWXY/LB1D1 |
Departure
| Time | N/A |
|---|---|
| Airport | Dubai International Airport (OMDB) |
Arrival
| Time | 2026-04-29 17:24 |
|---|---|
| Airport | Bologna Guglielmo Marconi Airport (LIPE) |
| Time | Latitude | Longitude | Altitude | Speed | Heading |
|---|---|---|---|---|---|
| 2026-04-29 16:46 | 43.26544 | 14.94773 | 39018 ft | 440 kts | 292° |
| 2026-04-29 16:46 | 43.28937 | 14.87038 | 39020 ft | 441 kts | 292° |
| 2026-04-29 16:47 | 43.31189 | 14.79213 | 39020 ft | 440 kts | 287° |
| 2026-04-29 16:47 | 43.32857 | 14.71180 | 39021 ft | 440 kts | 285° |
| 2026-04-29 16:48 | 43.34420 | 14.63045 | 39020 ft | 440 kts | 284° |
| 2026-04-29 16:48 | 43.35957 | 14.54905 | 39020 ft | 440 kts | 284° |
| 2026-04-29 16:49 | 43.37499 | 14.46753 | 39018 ft | 440 kts | 284° |
| 2026-04-29 16:49 | 43.39044 | 14.38593 | 39018 ft | 440 kts | 284° |
| 2026-04-29 16:50 | 43.40582 | 14.30446 | 39020 ft | 440 kts | 284° |
| 2026-04-29 16:50 | 43.42115 | 14.22288 | 39020 ft | 440 kts | 284° |
| 2026-04-29 16:51 | 43.43643 | 14.14119 | 39023 ft | 441 kts | 284° |
| 2026-04-29 16:51 | 43.45260 | 14.05959 | 39026 ft | 442 kts | 286° |
| 2026-04-29 16:52 | 43.47019 | 13.97916 | 39026 ft | 442 kts | 287° |
| 2026-04-29 16:52 | 43.48790 | 13.89808 | 39029 ft | 442 kts | 286° |
| 2026-04-29 16:53 | 43.50532 | 13.81676 | 39028 ft | 443 kts | 286° |
| 2026-04-29 16:53 | 43.52257 | 13.73524 | 39031 ft | 443 kts | 286° |
| 2026-04-29 16:54 | 43.53976 | 13.65357 | 39031 ft | 443 kts | 286° |
| 2026-04-29 16:54 | 43.55689 | 13.57191 | 39032 ft | 444 kts | 286° |
| 2026-04-29 16:55 | 43.57384 | 13.49078 | 39030 ft | 443 kts | 286° |
| 2026-04-29 16:55 | 43.59086 | 13.40904 | 39031 ft | 444 kts | 286° |
| 2026-04-29 16:56 | 43.60783 | 13.32723 | 39047 ft | 444 kts | 286° |
| 2026-04-29 16:56 | 43.62475 | 13.24532 | 39048 ft | 444 kts | 286° |
| 2026-04-29 16:57 | 43.64162 | 13.16331 | 39046 ft | 444 kts | 286° |
| 2026-04-29 16:57 | 43.65843 | 13.08123 | 39035 ft | 444 kts | 285° |
| 2026-04-29 16:58 | 43.67521 | 12.99900 | 39036 ft | 445 kts | 285° |
| 2026-04-29 16:58 | 43.69146 | 12.91648 | 39039 ft | 445 kts | 284° |
| 2026-04-29 16:59 | 43.70645 | 12.83357 | 39039 ft | 445 kts | 284° |
| 2026-04-29 16:59 | 43.72134 | 12.75054 | 39042 ft | 445 kts | 284° |
| 2026-04-29 17:00 | 43.73641 | 12.66739 | 39051 ft | 446 kts | 284° |
| 2026-04-29 17:00 | 43.75149 | 12.58428 | 39056 ft | 446 kts | 284° |
| 2026-04-29 17:01 | 43.76649 | 12.50147 | 39053 ft | 446 kts | 284° |
| 2026-04-29 17:01 | 43.78145 | 12.41837 | 38925 ft | 440 kts | 284° |
| 2026-04-29 17:02 | 43.78886 | 12.37720 | 38093 ft | 442 kts | 284° |
| 2026-04-29 17:02 | 43.79628 | 12.33583 | 37263 ft | 443 kts | 284° |
| 2026-04-29 17:02 | 43.80378 | 12.29441 | 36556 ft | 443 kts | 284° |
| 2026-04-29 17:02 | 43.81132 | 12.25304 | 35835 ft | 443 kts | 284° |
| 2026-04-29 17:03 | 43.81889 | 12.21161 | 35074 ft | 444 kts | 284° |
| 2026-04-29 17:03 | 43.82641 | 12.17009 | 34249 ft | 447 kts | 284° |
| 2026-04-29 17:03 | 43.83387 | 12.12805 | 33272 ft | 450 kts | 284° |
| 2026-04-29 17:03 | 43.84118 | 12.08633 | 32364 ft | 453 kts | 284° |
| 2026-04-29 17:04 | 43.84860 | 12.04374 | 31390 ft | 455 kts | 284° |
| 2026-04-29 17:04 | 43.85607 | 12.00087 | 30402 ft | 459 kts | 284° |
| 2026-04-29 17:04 | 43.86362 | 11.95759 | 29382 ft | 462 kts | 284° |
| 2026-04-29 17:04 | 43.87113 | 11.91448 | 28570 ft | 459 kts | 284° |
| 2026-04-29 17:05 | 43.88048 | 11.87238 | 27824 ft | 455 kts | 292° |
| 2026-04-29 17:05 | 43.89544 | 11.83400 | 27070 ft | 452 kts | 304° |
| 2026-04-29 17:05 | 43.91639 | 11.80171 | 26328 ft | 450 kts | 318° |
| 2026-04-29 17:05 | 43.94257 | 11.77800 | 25574 ft | 451 kts | 333° |
| 2026-04-29 17:06 | 43.97243 | 11.76465 | 24822 ft | 453 kts | 347° |
| 2026-04-29 17:06 | 44.00398 | 11.76274 | 24058 ft | 457 kts | 2° |
| 2026-04-29 17:06 | 44.03556 | 11.76604 | 23238 ft | 453 kts | 357° |
| 2026-04-29 17:06 | 44.06690 | 11.76353 | 22417 ft | 448 kts | 352° |
| 2026-04-29 17:07 | 44.09735 | 11.75919 | 21667 ft | 444 kts | 351° |
| 2026-04-29 17:07 | 44.12785 | 11.75408 | 20900 ft | 440 kts | 350° |
| 2026-04-29 17:07 | 44.15807 | 11.74858 | 20131 ft | 436 kts | 350° |
| 2026-04-29 17:07 | 44.18804 | 11.74284 | 19383 ft | 433 kts | 349° |
| 2026-04-29 17:08 | 44.21695 | 11.73287 | 18655 ft | 426 kts | 337° |
| 2026-04-29 17:08 | 44.24246 | 11.71256 | 17871 ft | 420 kts | 320° |
| 2026-04-29 17:08 | 44.26373 | 11.68512 | 17135 ft | 414 kts | 314° |
| 2026-04-29 17:08 | 44.28373 | 11.65651 | 16390 ft | 409 kts | 313° |
| 2026-04-29 17:09 | 44.30347 | 11.62816 | 15653 ft | 406 kts | 314° |
| 2026-04-29 17:09 | 44.32506 | 11.60318 | 14925 ft | 394 kts | 322° |
| 2026-04-29 17:09 | 44.34683 | 11.58196 | 14430 ft | 369 kts | 324° |
| 2026-04-29 17:09 | 44.36736 | 11.56247 | 13923 ft | 347 kts | 324° |
| 2026-04-29 17:10 | 44.38698 | 11.54384 | 13048 ft | 337 kts | 324° |
| 2026-04-29 17:10 | 44.40618 | 11.52552 | 12112 ft | 330 kts | 324° |
| 2026-04-29 17:10 | 44.42465 | 11.50788 | 11872 ft | 326 kts | 323° |
| 2026-04-29 17:10 | 44.44337 | 11.48997 | 11707 ft | 324 kts | 324° |
| 2026-04-29 17:11 | 44.46199 | 11.47215 | 11551 ft | 324 kts | 323° |
| 2026-04-29 17:11 | 44.48060 | 11.45432 | 11360 ft | 324 kts | 323° |
| 2026-04-29 17:11 | 44.49917 | 11.43653 | 11215 ft | 322 kts | 323° |
| 2026-04-29 17:11 | 44.51763 | 11.41881 | 11065 ft | 322 kts | 323° |
| 2026-04-29 17:12 | 44.53600 | 11.40116 | 10919 ft | 316 kts | 323° |
| 2026-04-29 17:12 | 44.55380 | 11.38410 | 10769 ft | 303 kts | 323° |
| 2026-04-29 17:12 | 44.57089 | 11.36768 | 10574 ft | 292 kts | 323° |
| 2026-04-29 17:12 | 44.58186 | 11.35712 | 10463 ft | 286 kts | 323° |
| 2026-04-29 17:13 | 44.60346 | 11.33632 | 10043 ft | 279 kts | 323° |
| 2026-04-29 17:13 | 44.61919 | 11.32114 | 9537 ft | 272 kts | 323° |
| 2026-04-29 17:13 | 44.63464 | 11.30601 | 9188 ft | 270 kts | 321° |
| 2026-04-29 17:13 | 44.64739 | 11.28723 | 8870 ft | 264 kts | 302° |
| 2026-04-29 17:14 | 44.65642 | 11.26479 | 8554 ft | 262 kts | 295° |
| 2026-04-29 17:14 | 44.66444 | 11.24209 | 8389 ft | 266 kts | 295° |
| 2026-04-29 17:14 | 44.67256 | 11.21912 | 8230 ft | 261 kts | 295° |
| 2026-04-29 17:14 | 44.68062 | 11.19637 | 7870 ft | 258 kts | 295° |
| 2026-04-29 17:15 | 44.68852 | 11.17420 | 7706 ft | 248 kts | 295° |
| 2026-04-29 17:15 | 44.69614 | 11.15284 | 7466 ft | 242 kts | 295° |
| 2026-04-29 17:15 | 44.70366 | 11.13174 | 7116 ft | 241 kts | 295° |
| 2026-04-29 17:15 | 44.71108 | 11.11098 | 6942 ft | 233 kts | 295° |
| 2026-04-29 17:16 | 44.71825 | 11.09106 | 6806 ft | 223 kts | 296° |
| 2026-04-29 17:16 | 44.72533 | 11.07197 | 6572 ft | 218 kts | 296° |
| 2026-04-29 17:16 | 44.73120 | 11.05250 | 6230 ft | 216 kts | 285° |
| 2026-04-29 17:16 | 44.73211 | 11.03152 | 5725 ft | 218 kts | 262° |
| 2026-04-29 17:17 | 44.72633 | 11.01206 | 5290 ft | 218 kts | 234° |
| 2026-04-29 17:17 | 44.71509 | 10.99780 | 5006 ft | 218 kts | 211° |
| 2026-04-29 17:17 | 44.70189 | 10.98783 | 4738 ft | 218 kts | 204° |
| 2026-04-29 17:17 | 44.68862 | 10.97886 | 4601 ft | 206 kts | 204° |
| 2026-04-29 17:18 | 44.67552 | 10.97086 | 4454 ft | 202 kts | 195° |
| 2026-04-29 17:18 | 44.66189 | 10.96937 | 4311 ft | 193 kts | 161° |
| 2026-04-29 17:18 | 44.65058 | 10.97846 | 4117 ft | 186 kts | 136° |
| 2026-04-29 17:18 | 44.64226 | 10.99223 | 3905 ft | 185 kts | 121° |
| 2026-04-29 17:19 | 44.63626 | 11.00803 | 3666 ft | 181 kts | 114° |
| 2026-04-29 17:19 | 44.63069 | 11.02395 | 3516 ft | 183 kts | 115° |
| 2026-04-29 17:19 | 44.62501 | 11.03990 | 3428 ft | 182 kts | 115° |
| 2026-04-29 17:19 | 44.61925 | 11.05578 | 3330 ft | 183 kts | 115° |
| 2026-04-29 17:20 | 44.61345 | 11.07166 | 3240 ft | 183 kts | 114° |
| 2026-04-29 17:20 | 44.60780 | 11.08719 | 3060 ft | 173 kts | 114° |
| 2026-04-29 17:20 | 44.60258 | 11.10165 | 2898 ft | 163 kts | 114° |
| 2026-04-29 17:20 | 44.59765 | 11.11543 | 2760 ft | 155 kts | 114° |
| 2026-04-29 17:21 | 44.59290 | 11.12879 | 2556 ft | 151 kts | 114° |
| 2026-04-29 17:21 | 44.58823 | 11.14179 | 2362 ft | 147 kts | 115° |
| 2026-04-29 17:21 | 44.58366 | 11.15445 | 2173 ft | 144 kts | 114° |
| 2026-04-29 17:21 | 44.57925 | 11.16677 | 1978 ft | 138 kts | 113° |
| 2026-04-29 17:22 | 44.57508 | 11.17841 | 1802 ft | 129 kts | 114° |
| 2026-04-29 17:22 | 44.57110 | 11.18938 | 1602 ft | 125 kts | 111° |
| 2026-04-29 17:22 | 44.56727 | 11.20030 | 1379 ft | 126 kts | 113° |
| 2026-04-29 17:22 | 44.56332 | 11.21148 | 1254 ft | 129 kts | 113° |
| 2026-04-29 17:23 | 44.55928 | 11.22279 | 1023 ft | 129 kts | 115° |
| 2026-04-29 17:23 | 44.55511 | 11.23393 | 856 ft | 130 kts | 114° |
| 2026-04-29 17:23 | 44.55102 | 11.24523 | 645 ft | 130 kts | 112° |
| 2026-04-29 17:23 | 44.54692 | 11.25648 | 440 ft | 131 kts | 110° |
| 2026-04-29 17:24 | 44.54291 | 11.26773 | 299 ft | 126 kts | 107° |
| 2026-04-29 17:24 | 44.53904 | 11.27861 | 147 ft | 124 kts | 111° |
| 2026-04-29 17:24 | 44.53560 | 11.28821 | 125 ft | 84 kts | 117° |
| 2026-04-29 17:24 | 44.53387 | 11.29302 | 136 ft | 35 kts | 116° |
| 2026-04-29 17:25 | 44.53312 | 11.29511 | 137 ft | 18 kts | 117° |
| 2026-04-29 17:25 | 44.53267 | 11.29614 | 137 ft | 9 kts | 141° |
| 2026-04-29 17:25 | 44.53226 | 11.29599 | 137 ft | 6 kts | 232° |
| 2026-04-29 17:25 | 44.53214 | 11.29525 | 137 ft | 10 kts | 266° |
| 2026-04-29 17:26 | 44.53210 | 11.29445 | 137 ft | 5 kts | 266° |
| 2026-04-29 17:26 | 44.53207 | 11.29378 | 137 ft | 9 kts | 266° |
| 2026-04-29 17:26 | 44.53205 | 11.29277 | 137 ft | 12 kts | 278° |
| 2026-04-29 17:26 | 44.53242 | 11.29156 | 137 ft | 15 kts | 298° |
| 2026-04-29 17:27 | 44.53294 | 11.29015 | 137 ft | 17 kts | 297° |
| 2026-04-29 17:27 | 44.53347 | 11.28867 | 136 ft | 18 kts | 296° |
| 2026-04-29 17:27 | 44.53408 | 11.28697 | 136 ft | 20 kts | 297° |
| 2026-04-29 17:27 | 44.53461 | 11.28550 | 136 ft | 12 kts | 296° |
| 2026-04-29 17:28 | 44.53502 | 11.28436 | 136 ft | 14 kts | 297° |
| 2026-04-29 17:28 | 44.53536 | 11.28340 | 136 ft | 7 kts | 288° |
| 2026-04-29 17:28 | 44.53516 | 11.28299 | 137 ft | 2 kts | 202° |
| 2026-04-29 17:28 | 44.53505 | 11.28307 | 137 ft | 3 kts | 147° |
| 2026-04-29 17:29 | 44.53477 | 11.28341 | 137 ft | 4 kts | 147° |
| 2026-04-29 17:29 | 44.53456 | 11.28339 | 137 ft | 4 kts | 194° |
| 2026-04-29 17:29 | 44.53418 | 11.28314 | 137 ft | 6 kts | 206° |
| 2026-04-29 17:29 | 44.53395 | 11.28298 | 137 ft | 1 kts | 206° |
| 2026-04-29 17:30 | 44.53392 | 11.28296 | 137 ft | 0 kts | 206° |